createdAt,value
2022-10-31T00:00:47.036Z,12.00
2022-10-31T00:03:14.921Z,13.53
2022-10-31T00:05:45.149Z,12.33
2022-10-31T00:08:13.017Z,14.47
2022-10-31T00:10:40.981Z,10.93
2022-10-31T00:13:09.581Z,14.30
2022-10-31T00:15:37.895Z,16.73
2022-10-31T00:18:07.315Z,11.77
2022-10-31T00:20:35.605Z,12.53
2022-10-31T00:23:05.922Z,12.07
2022-10-31T00:25:37.185Z,14.83
2022-10-31T00:28:05.570Z,14.10
2022-10-31T00:30:33.861Z,11.77
2022-10-31T00:33:02.126Z,15.97
2022-10-31T00:35:30.169Z,10.87
2022-10-31T00:37:58.012Z,13.10
2022-10-31T00:40:27.215Z,10.83
2022-10-31T00:42:55.345Z,13.17
2022-10-31T00:45:23.206Z,12.37
2022-10-31T00:47:50.996Z,12.60
2022-10-31T00:50:19.014Z,14.97
2022-10-31T00:52:46.822Z,14.17
2022-10-31T00:55:14.789Z,10.77
2022-10-31T00:57:44.385Z,16.60
2022-10-31T01:00:13.289Z,11.30
2022-10-31T01:02:41.880Z,20.60
2022-10-31T01:05:10.329Z,14.53
2022-10-31T01:07:40.061Z,13.27
2022-10-31T01:10:11.557Z,13.23
2022-10-31T01:12:39.460Z,12.93
2022-10-31T01:15:10.298Z,13.57
2022-10-31T01:17:38.194Z,13.20
2022-10-31T01:20:07.463Z,15.50
2022-10-31T01:22:35.348Z,16.07
2022-10-31T01:25:03.371Z,13.67
2022-10-31T01:27:32.552Z,13.60
2022-10-31T01:30:00.425Z,16.17
2022-10-31T01:32:30.591Z,16.97
2022-10-31T01:34:59.789Z,14.00
2022-10-31T01:37:27.718Z,14.17
2022-10-31T01:39:55.570Z,12.40
2022-10-31T01:42:25.163Z,30.50
2022-10-31T01:44:56.507Z,17.90
2022-10-31T01:47:37.885Z,23.77
2022-10-31T01:50:13.033Z,15.53
2022-10-31T01:52:44.821Z,13.60
2022-10-31T01:55:17.225Z,14.53
2022-10-31T01:57:48.531Z,12.30
2022-10-31T02:00:20.714Z,13.33
2022-10-31T02:02:51.173Z,12.40
2022-10-31T02:05:21.538Z,15.90
2022-10-31T02:07:56.159Z,11.67
2022-10-31T02:10:30.617Z,12.37
2022-10-31T02:13:01.843Z,12.47
2022-10-31T02:15:31.726Z,14.27
2022-10-31T02:18:01.869Z,13.40
2022-10-31T02:20:34.400Z,17.97
2022-10-31T02:23:47.844Z,13.63
2022-10-31T02:26:43.524Z,14.67
2022-10-31T02:29:39.077Z,18.73
2022-10-31T02:32:14.393Z,17.07
2022-10-31T02:34:51.032Z,14.67
2022-10-31T02:37:24.255Z,12.47
2022-10-31T02:39:58.441Z,14.73
2022-10-31T02:42:45.100Z,14.20
2022-10-31T02:45:19.578Z,19.47
2022-10-31T02:47:52.226Z,15.93
2022-10-31T02:50:25.393Z,14.27
2022-10-31T02:52:53.945Z,18.87
2022-10-31T02:55:56.793Z,14.53
2022-10-31T02:58:27.889Z,15.20
2022-10-31T03:01:11.971Z,15.83
2022-10-31T03:03:51.626Z,13.73
2022-10-31T03:06:25.382Z,14.83
2022-10-31T03:09:02.875Z,17.37
2022-10-31T03:11:36.461Z,23.13
2022-10-31T03:14:12.386Z,17.70
2022-10-31T03:16:47.518Z,18.07
2022-10-31T03:19:21.745Z,14.93
2022-10-31T03:21:55.447Z,15.07
2022-10-31T03:24:27.128Z,19.23
2022-10-31T03:26:58.428Z,16.80
2022-10-31T03:29:30.137Z,19.97
2022-10-31T03:32:01.150Z,20.37
2022-10-31T03:34:32.720Z,18.13
2022-10-31T03:37:05.634Z,16.47
2022-10-31T03:39:35.062Z,15.10
2022-10-31T03:42:08.250Z,16.87
2022-10-31T03:44:37.386Z,16.93
2022-10-31T03:47:06.356Z,17.43
2022-10-31T03:49:36.437Z,16.30
2022-10-31T03:52:10.498Z,16.20
2022-10-31T03:54:44.208Z,16.10
2022-10-31T03:57:18.610Z,13.47
2022-10-31T03:59:50.282Z,16.93
2022-10-31T04:02:22.511Z,18.63
2022-10-31T04:04:52.726Z,18.50
2022-10-31T04:07:24.691Z,17.53
2022-10-31T04:09:54.460Z,19.93
2022-10-31T04:12:24.724Z,17.73
2022-10-31T04:15:01.832Z,16.43
2022-10-31T04:17:33.813Z,18.53
2022-10-31T04:20:03.294Z,17.33
2022-10-31T04:22:32.422Z,17.90
2022-10-31T04:25:01.215Z,20.37
2022-10-31T04:27:29.176Z,18.43
2022-10-31T04:29:57.021Z,19.57
2022-10-31T04:32:24.954Z,24.43
2022-10-31T04:34:53.662Z,19.93
2022-10-31T04:37:22.864Z,23.27
2022-10-31T04:39:51.094Z,22.43
2022-10-31T04:42:37.624Z,21.30
2022-10-31T04:45:07.830Z,23.23
2022-10-31T04:47:37.174Z,20.43
2022-10-31T04:50:05.621Z,22.13
2022-10-31T04:52:40.982Z,19.40
2022-10-31T04:55:10.393Z,21.13
2022-10-31T04:57:51.402Z,19.47
2022-10-31T05:00:22.920Z,18.27
2022-10-31T05:02:53.357Z,17.20
2022-10-31T05:05:23.290Z,17.53
2022-10-31T05:07:53.535Z,24.17
2022-10-31T05:10:25.276Z,23.00
2022-10-31T05:12:55.175Z,18.87
2022-10-31T05:15:43.014Z,22.40
2022-10-31T05:18:19.825Z,19.13
2022-10-31T05:21:06.596Z,15.77
2022-10-31T05:23:45.837Z,18.50
2022-10-31T05:26:16.329Z,18.13
2022-10-31T05:28:44.130Z,25.10
2022-10-31T05:31:12.758Z,18.63
2022-10-31T05:33:40.637Z,21.37
2022-10-31T05:36:37.490Z,19.77
2022-10-31T05:39:13.783Z,15.10
2022-10-31T05:41:44.515Z,18.57
2022-10-31T05:44:20.236Z,15.50
2022-10-31T05:47:07.515Z,15.17
2022-10-31T05:49:54.366Z,24.13
2022-10-31T05:52:40.607Z,14.10
2022-10-31T05:55:33.451Z,19.87
2022-10-31T05:58:13.655Z,16.40
2022-10-31T06:00:46.809Z,17.47
2022-10-31T06:03:14.715Z,13.47
2022-10-31T06:05:50.544Z,16.50
2022-10-31T06:08:21.975Z,16.70
2022-10-31T06:10:53.946Z,12.83
2022-10-31T06:13:30.355Z,17.67
2022-10-31T06:16:06.949Z,20.07
2022-10-31T06:18:38.129Z,21.60
2022-10-31T06:21:06.223Z,17.63
2022-10-31T06:23:34.050Z,19.80
2022-10-31T06:26:32.657Z,15.83
2022-10-31T06:29:03.140Z,16.47
2022-10-31T06:31:54.704Z,18.00
2022-10-31T06:34:22.548Z,21.87
2022-10-31T06:36:50.455Z,26.20
2022-10-31T06:39:21.271Z,23.23
2022-10-31T06:41:50.783Z,30.57
2022-10-31T06:44:21.517Z,25.43
2022-10-31T06:47:01.649Z,22.80
2022-10-31T06:49:48.437Z,23.77
2022-10-31T06:52:18.511Z,27.33
2022-10-31T06:54:46.363Z,29.33
2022-10-31T06:57:16.680Z,22.80
2022-10-31T06:59:45.173Z,26.37
2022-10-31T07:02:17.840Z,25.97
2022-10-31T07:04:45.729Z,30.83
2022-10-31T07:07:18.394Z,29.83
2022-10-31T07:09:47.105Z,27.17
2022-10-31T07:12:19.018Z,28.40
2022-10-31T07:14:56.234Z,27.97
2022-10-31T07:17:29.724Z,21.33
2022-10-31T07:19:59.536Z,29.83
2022-10-31T07:22:33.623Z,31.77
2022-10-31T07:25:01.583Z,33.80
2022-10-31T07:27:49.688Z,25.93
2022-10-31T07:30:19.184Z,26.33
2022-10-31T07:32:49.153Z,28.30
2022-10-31T07:35:21.238Z,25.63
2022-10-31T07:37:54.362Z,21.47
2022-10-31T07:40:22.678Z,20.40
2022-10-31T07:42:53.897Z,22.67
2022-10-31T07:45:53.141Z,21.90
2022-10-31T07:48:50.246Z,22.77
2022-10-31T07:51:36.474Z,21.77
2022-10-31T07:54:31.361Z,21.80
2022-10-31T07:56:59.187Z,25.33
2022-10-31T07:59:28.363Z,22.07
2022-10-31T08:01:56.393Z,23.87
2022-10-31T08:04:33.449Z,24.57
2022-10-31T08:07:20.157Z,23.43
2022-10-31T08:09:55.917Z,24.73
2022-10-31T08:12:27.302Z,24.73
2022-10-31T08:14:56.973Z,19.33
2022-10-31T08:17:24.954Z,33.50
2022-10-31T08:19:56.571Z,24.67
2022-10-31T08:22:41.211Z,25.27
2022-10-31T08:25:11.622Z,26.13
2022-10-31T08:27:40.240Z,30.53
2022-10-31T08:30:13.827Z,26.63
2022-10-31T08:32:58.485Z,23.97
2022-10-31T08:35:46.829Z,22.17
2022-10-31T08:38:40.394Z,22.07
2022-10-31T08:41:10.616Z,24.90
2022-10-31T08:43:38.417Z,27.47
2022-10-31T08:46:08.080Z,28.63
2022-10-31T08:48:36.010Z,30.63
2022-10-31T08:51:05.181Z,29.13
2022-10-31T08:53:33.576Z,29.70
2022-10-31T08:56:30.742Z,27.63
2022-10-31T08:58:58.823Z,32.93
2022-10-31T09:01:38.964Z,30.77
2022-10-31T09:04:07.605Z,43.77
2022-10-31T09:06:35.444Z,29.40
2022-10-31T09:09:05.717Z,29.37
2022-10-31T09:11:33.552Z,34.03
2022-10-31T09:14:30.473Z,31.00
2022-10-31T09:17:31.776Z,33.07
2022-10-31T09:20:36.369Z,26.77
2022-10-31T09:23:07.005Z,34.27
2022-10-31T09:25:36.901Z,31.90
2022-10-31T09:28:34.053Z,29.27
2022-10-31T09:31:07.453Z,29.53
2022-10-31T09:33:48.481Z,27.70
2022-10-31T09:36:34.852Z,31.87
2022-10-31T09:39:04.694Z,30.83
2022-10-31T09:41:54.635Z,33.00
2022-10-31T09:44:50.165Z,34.00
2022-10-31T09:47:46.435Z,34.10
2022-10-31T09:50:37.400Z,38.07
2022-10-31T09:53:27.690Z,37.07
2022-10-31T09:55:56.834Z,36.83
2022-10-31T09:58:27.341Z,36.87
2022-10-31T10:01:00.576Z,39.10
2022-10-31T10:03:36.938Z,41.07
2022-10-31T10:06:26.549Z,39.57
2022-10-31T10:09:29.839Z,45.60
2022-10-31T10:12:24.481Z,40.83
2022-10-31T10:15:02.612Z,41.67
2022-10-31T10:17:40.019Z,46.73
2022-10-31T10:20:25.864Z,46.17
2022-10-31T10:23:03.740Z,45.23
2022-10-31T10:25:40.421Z,49.07
2022-10-31T10:28:19.067Z,44.23
2022-10-31T10:30:50.767Z,41.70
2022-10-31T10:33:33.217Z,47.87
2022-10-31T10:36:03.245Z,48.57
2022-10-31T10:38:37.444Z,46.63
2022-10-31T10:41:11.925Z,42.93
2022-10-31T10:43:40.388Z,43.43
2022-10-31T10:46:39.325Z,46.43
2022-10-31T10:49:17.320Z,41.73
2022-10-31T10:54:48.481Z,44.40
2022-10-31T10:57:32.160Z,46.63
2022-10-31T11:00:02.730Z,36.77
2022-10-31T11:02:34.874Z,41.40
2022-10-31T11:05:04.455Z,40.20
2022-10-31T11:07:39.845Z,37.97
2022-10-31T11:10:15.889Z,40.63
2022-10-31T11:12:45.685Z,38.77
2022-10-31T11:15:22.229Z,36.37
2022-10-31T11:17:52.336Z,38.97
2022-10-31T11:20:32.729Z,38.77
2022-10-31T11:23:07.855Z,37.47
2022-10-31T11:25:37.649Z,41.80
2022-10-31T11:28:07.628Z,36.93
2022-10-31T11:30:45.501Z,41.97
2022-10-31T11:33:21.887Z,42.10
2022-10-31T11:35:53.402Z,37.73
2022-10-31T11:38:35.751Z,34.60
2022-10-31T11:41:13.643Z,32.93
2022-10-31T11:43:47.887Z,39.23
2022-10-31T11:46:23.362Z,38.40
2022-10-31T11:48:54.277Z,38.67
2022-10-31T11:51:24.100Z,35.10
2022-10-31T11:53:56.898Z,36.70
2022-10-31T11:56:29.717Z,37.33
2022-10-31T11:58:58.335Z,34.67
2022-10-31T12:01:28.085Z,34.20
2022-10-31T12:04:08.251Z,39.50
2022-10-31T12:06:38.104Z,33.63
2022-10-31T12:09:18.165Z,33.97
2022-10-31T12:11:58.906Z,32.07
2022-10-31T12:14:35.653Z,36.10
2022-10-31T12:17:10.566Z,30.60
2022-10-31T12:19:44.518Z,29.67
2022-10-31T12:22:21.012Z,32.20
2022-10-31T12:25:13.298Z,30.17
2022-10-31T12:28:02.150Z,28.80
2022-10-31T12:30:41.802Z,29.37
2022-10-31T12:33:28.742Z,26.50
2022-10-31T12:36:12.681Z,29.90
2022-10-31T12:38:53.632Z,29.30
2022-10-31T12:41:34.690Z,26.83
2022-10-31T12:44:08.860Z,27.83
2022-10-31T12:47:00.037Z,32.33
2022-10-31T12:49:46.234Z,23.50
2022-10-31T12:52:28.789Z,25.77
2022-10-31T12:55:16.154Z,25.77
2022-10-31T12:57:48.064Z,25.47
2022-10-31T13:00:18.994Z,27.87
2022-10-31T13:02:53.717Z,27.77
2022-10-31T13:05:27.086Z,22.60
2022-10-31T13:07:59.734Z,24.93
2022-10-31T13:10:32.061Z,27.10
2022-10-31T13:13:08.219Z,24.97
2022-10-31T13:15:47.118Z,22.27
2022-10-31T13:18:24.927Z,22.10
2022-10-31T13:20:55.666Z,24.40
2022-10-31T13:26:22.189Z,21.10
2022-10-31T13:28:56.700Z,22.70
2022-10-31T13:31:25.946Z,21.90
2022-10-31T13:33:58.215Z,21.00
2022-10-31T13:36:33.425Z,22.43
2022-10-31T13:39:11.496Z,22.73
2022-10-31T13:41:45.498Z,24.67
2022-10-31T13:44:16.672Z,22.33
2022-10-31T13:46:46.630Z,24.30
2022-10-31T13:49:40.315Z,21.33
2022-10-31T13:52:23.691Z,23.87
2022-10-31T13:54:56.834Z,20.13
2022-10-31T13:57:34.623Z,21.93
2022-10-31T14:00:05.911Z,22.03
2022-10-31T14:02:48.061Z,21.63
2022-10-31T14:05:24.858Z,19.43
2022-10-31T14:07:54.839Z,19.67
2022-10-31T14:10:27.858Z,21.30
2022-10-31T14:13:05.020Z,20.50
2022-10-31T14:15:33.537Z,19.60
2022-10-31T14:18:05.275Z,19.07
2022-10-31T14:20:40.405Z,20.40
2022-10-31T14:23:38.745Z,19.63
2022-10-31T14:26:37.657Z,20.40
2022-10-31T14:29:25.666Z,23.20
2022-10-31T14:32:03.305Z,19.07
2022-10-31T14:34:36.113Z,18.20
2022-10-31T14:37:33.643Z,18.80
2022-10-31T14:40:22.797Z,20.87
2022-10-31T14:43:31.931Z,18.17
2022-10-31T14:46:04.112Z,21.67
2022-10-31T14:49:03.731Z,18.10
2022-10-31T14:51:39.056Z,18.73
2022-10-31T14:54:08.087Z,19.20
2022-10-31T14:56:39.451Z,18.77
2022-10-31T14:59:10.949Z,19.93
2022-10-31T15:01:41.493Z,18.67
2022-10-31T15:04:25.211Z,21.27
2022-10-31T15:07:02.361Z,19.53
2022-10-31T15:09:32.506Z,19.90
2022-10-31T15:12:01.068Z,17.83
2022-10-31T15:14:30.490Z,19.40
2022-10-31T15:17:00.223Z,14.90
2022-10-31T15:19:31.563Z,16.83
2022-10-31T15:22:00.960Z,18.03
2022-10-31T15:24:35.851Z,16.33
2022-10-31T15:27:05.426Z,18.60
2022-10-31T15:29:33.817Z,17.60
2022-10-31T15:32:03.911Z,21.47
2022-10-31T15:34:38.598Z,20.83
2022-10-31T15:37:13.426Z,17.13
2022-10-31T15:39:41.381Z,17.87
2022-10-31T15:42:19.586Z,14.47
2022-10-31T15:44:50.113Z,14.53
2022-10-31T15:47:20.088Z,16.87
2022-10-31T15:49:51.748Z,19.23
2022-10-31T15:52:27.973Z,15.90
2022-10-31T15:54:58.655Z,18.77
2022-10-31T15:57:27.989Z,17.33
2022-10-31T15:59:56.939Z,18.47
2022-10-31T16:02:26.817Z,21.03
2022-10-31T16:04:57.336Z,18.27
2022-10-31T16:07:27.409Z,16.87
2022-10-31T16:09:57.535Z,21.57
2022-10-31T16:12:36.125Z,15.03
2022-10-31T16:15:05.758Z,20.40
2022-10-31T16:17:33.973Z,15.83
2022-10-31T16:20:04.316Z,14.73
2022-10-31T16:22:36.114Z,15.00
2022-10-31T16:25:07.194Z,15.87
2022-10-31T16:27:37.173Z,17.13
2022-10-31T16:30:21.060Z,11.07
2022-10-31T16:32:56.295Z,11.43
2022-10-31T16:35:28.794Z,13.60
2022-10-31T16:37:57.949Z,9.97
2022-10-31T16:40:26.226Z,10.93
2022-10-31T16:42:54.513Z,12.33
2022-10-31T16:45:24.070Z,10.00
2022-10-31T16:47:52.954Z,11.37
2022-10-31T16:50:23.119Z,10.40
2022-10-31T16:53:13.795Z,12.07
2022-10-31T16:55:46.870Z,11.93
2022-10-31T16:58:20.763Z,11.17
2022-10-31T17:00:48.903Z,9.03
2022-10-31T17:03:16.781Z,11.63
2022-10-31T17:05:44.728Z,13.47
2022-10-31T17:08:12.678Z,13.13
2022-10-31T17:10:41.638Z,13.80
2022-10-31T17:13:16.680Z,11.37
2022-10-31T17:15:47.777Z,12.43
2022-10-31T17:18:17.037Z,13.27
2022-10-31T17:20:46.078Z,15.13
2022-10-31T17:23:15.520Z,12.00
2022-10-31T17:25:44.369Z,11.87
2022-10-31T17:28:15.468Z,12.77
2022-10-31T17:30:44.468Z,10.87
2022-10-31T17:33:14.209Z,12.40
2022-10-31T17:35:42.390Z,11.67
2022-10-31T17:38:10.467Z,10.77
2022-10-31T17:40:39.393Z,12.20
2022-10-31T17:43:07.480Z,16.57
2022-10-31T17:45:39.044Z,12.90
2022-10-31T17:48:07.954Z,15.37
2022-10-31T17:50:35.809Z,14.23
2022-10-31T17:53:03.953Z,13.40
2022-10-31T17:55:36.206Z,13.73
2022-10-31T17:58:06.065Z,10.37
2022-10-31T18:00:34.499Z,13.50
2022-10-31T18:03:04.900Z,12.43
2022-10-31T18:05:33.269Z,12.27
2022-10-31T18:08:04.077Z,15.67
2022-10-31T18:10:32.391Z,11.00
2022-10-31T18:13:00.636Z,15.20
2022-10-31T18:15:28.752Z,12.40
2022-10-31T18:17:56.706Z,10.93
2022-10-31T18:20:25.873Z,13.20
2022-10-31T18:22:53.712Z,10.60
2022-10-31T18:25:21.539Z,12.17
2022-10-31T18:27:49.343Z,10.90
2022-10-31T18:30:18.050Z,14.70
2022-10-31T18:32:45.973Z,10.73
2022-10-31T18:35:13.821Z,11.30
2022-10-31T18:37:43.001Z,11.00
2022-10-31T18:40:11.386Z,10.43
2022-10-31T18:42:39.309Z,12.80
2022-10-31T18:45:17.547Z,11.57
2022-10-31T18:47:55.893Z,11.33
2022-10-31T18:50:24.278Z,11.50
2022-10-31T18:52:53.506Z,14.43
2022-10-31T18:55:21.353Z,11.37
2022-10-31T18:57:49.230Z,12.33
2022-10-31T19:00:18.522Z,13.03
2022-10-31T19:02:46.338Z,11.83
2022-10-31T19:05:14.199Z,12.10
2022-10-31T19:07:42.060Z,13.10
2022-10-31T19:10:11.552Z,10.43
2022-10-31T19:12:40.761Z,9.43
2022-10-31T19:15:09.250Z,13.10
2022-10-31T19:17:37.038Z,13.57
2022-10-31T19:20:05.405Z,13.67
2022-10-31T19:22:33.255Z,9.93
2022-10-31T19:25:03.021Z,14.03
2022-10-31T19:27:35.293Z,10.93
2022-10-31T19:30:03.161Z,11.57
2022-10-31T19:32:30.994Z,13.00
2022-10-31T19:34:58.818Z,13.83
2022-10-31T19:37:26.684Z,14.40
2022-10-31T19:39:54.525Z,13.30
2022-10-31T19:42:24.186Z,16.50
2022-10-31T19:44:53.342Z,11.80
2022-10-31T19:47:21.266Z,11.57
2022-10-31T19:49:49.080Z,15.17
2022-10-31T19:52:16.930Z,14.03
2022-10-31T19:54:44.794Z,13.07
2022-10-31T19:57:12.666Z,14.87
2022-10-31T19:59:40.529Z,11.07
2022-10-31T20:02:16.984Z,12.77
2022-10-31T20:04:44.820Z,17.37
2022-10-31T20:07:12.617Z,13.47
2022-10-31T20:09:40.462Z,15.47
2022-10-31T20:12:08.682Z,15.60
2022-10-31T20:14:36.484Z,10.77
2022-10-31T20:17:04.586Z,13.07
2022-10-31T20:19:33.784Z,13.43
2022-10-31T20:22:01.752Z,12.63
2022-10-31T20:24:32.956Z,9.67
2022-10-31T20:27:00.830Z,12.93
2022-10-31T20:29:28.671Z,11.03
2022-10-31T20:31:57.141Z,9.70
2022-10-31T20:34:24.957Z,12.40
2022-10-31T20:36:54.132Z,14.53
2022-10-31T20:39:21.974Z,12.83
2022-10-31T20:41:49.792Z,11.00
2022-10-31T20:44:17.790Z,10.40
2022-10-31T20:46:45.644Z,11.80
2022-10-31T20:49:13.477Z,13.23
2022-10-31T20:51:41.320Z,12.73
2022-10-31T20:54:13.862Z,12.43
2022-10-31T20:56:42.458Z,10.83
2022-10-31T20:59:10.404Z,10.77
2022-10-31T21:01:38.426Z,10.93
2022-10-31T21:04:08.743Z,10.50
2022-10-31T21:06:36.550Z,12.53
2022-10-31T21:09:05.072Z,11.27
2022-10-31T21:11:34.329Z,12.80
2022-10-31T21:14:02.218Z,12.33
2022-10-31T21:16:32.226Z,14.20
2022-10-31T21:19:01.618Z,10.77
2022-10-31T21:21:32.681Z,11.13
2022-10-31T21:24:02.962Z,10.93
2022-10-31T21:26:33.480Z,12.07
2022-10-31T21:29:02.762Z,11.80
2022-10-31T21:31:31.291Z,12.03
2022-10-31T21:33:59.173Z,9.23
2022-10-31T21:36:27.298Z,9.40
2022-10-31T21:38:56.390Z,10.10
2022-10-31T21:41:26.233Z,8.73
2022-10-31T21:43:55.205Z,12.17
2022-10-31T21:46:26.765Z,9.57
2022-10-31T21:48:55.347Z,11.53
2022-10-31T21:51:25.692Z,9.60
2022-10-31T21:54:11.284Z,10.27
2022-10-31T21:56:39.405Z,8.80
2022-10-31T21:59:07.373Z,10.63
2022-10-31T22:01:37.287Z,14.60
2022-10-31T22:04:05.453Z,9.83
2022-10-31T22:06:34.517Z,10.20
2022-10-31T22:09:05.496Z,11.00
2022-10-31T22:11:34.235Z,12.00
2022-10-31T22:14:03.019Z,10.00
2022-10-31T22:16:32.157Z,8.77
2022-10-31T22:19:05.152Z,9.00
2022-10-31T22:21:37.479Z,11.43
2022-10-31T22:24:07.720Z,10.80
2022-10-31T22:26:36.633Z,10.00
2022-10-31T22:29:07.504Z,12.50
2022-10-31T22:31:38.303Z,9.67
2022-10-31T22:34:07.828Z,9.90
2022-10-31T22:36:35.962Z,8.53
2022-10-31T22:39:03.829Z,11.17
2022-10-31T22:41:33.621Z,11.43
2022-10-31T22:44:02.816Z,13.30
2022-10-31T22:46:34.541Z,12.80
2022-10-31T22:49:05.428Z,11.53
2022-10-31T22:51:37.596Z,13.80
2022-10-31T22:54:06.590Z,9.87
2022-10-31T22:56:35.238Z,9.53
2022-10-31T22:59:03.555Z,11.03
2022-10-31T23:01:33.448Z,13.17
2022-10-31T23:04:02.193Z,9.60
2022-10-31T23:06:31.905Z,8.70
2022-10-31T23:09:03.218Z,11.47
2022-10-31T23:11:33.078Z,9.87
2022-10-31T23:14:10.313Z,10.63
2022-10-31T23:16:42.421Z,8.70
2022-10-31T23:19:10.905Z,11.73
2022-10-31T23:21:55.899Z,10.43
2022-10-31T23:24:28.076Z,10.57
2022-10-31T23:27:06.422Z,8.97
2022-10-31T23:29:35.342Z,7.73
2022-10-31T23:32:03.841Z,8.43
2022-10-31T23:34:32.087Z,10.07
2022-10-31T23:36:59.953Z,11.07
2022-10-31T23:39:29.151Z,13.63
2022-10-31T23:41:57.093Z,10.80
2022-10-31T23:44:25.008Z,8.40
2022-10-31T23:46:52.870Z,10.70
2022-10-31T23:49:20.783Z,8.63
2022-10-31T23:51:48.619Z,11.37
2022-10-31T23:54:16.601Z,8.53
2022-10-31T23:56:45.798Z,9.60
2022-10-31T23:59:13.620Z,11.47
